sensor_id;sensor_type;location;lat;lon;timestamp;temperature;humidity
64034;SHT31;50280;49.864;8.638;2022-08-21T12:44:16;34.51;24.51
64034;SHT31;50280;49.864;8.638;2022-08-21T12:46:57;35.01;23.82
64034;SHT31;50280;49.864;8.638;2022-08-21T12:49:37;35.34;23.17
64034;SHT31;50280;49.864;8.638;2022-08-21T12:52:27;35.35;22.86
64034;SHT31;50280;49.864;8.638;2022-08-21T12:55:06;35.34;23.85
64034;SHT31;50280;49.864;8.638;2022-08-21T12:57:43;35.61;23.50
64034;SHT31;50280;49.864;8.638;2022-08-21T13:00:22;36.04;23.10
64034;SHT31;50280;49.864;8.638;2022-08-21T13:02:57;36.14;22.08
64034;SHT31;50280;49.864;8.638;2022-08-21T13:05:32;35.72;22.58
64034;SHT31;50280;49.864;8.638;2022-08-21T13:08:11;35.49;22.88
64034;SHT31;50280;49.864;8.638;2022-08-21T13:10:47;35.01;23.71
64034;SHT31;50280;49.864;8.638;2022-08-21T13:13:29;34.84;23.64
64034;SHT31;50280;49.864;8.638;2022-08-21T13:16:06;34.42;23.88
64034;SHT31;50280;49.864;8.638;2022-08-21T13:18:53;34.05;24.73
64034;SHT31;50280;49.864;8.638;2022-08-21T13:21:32;34.07;24.62
64034;SHT31;50280;49.864;8.638;2022-08-21T13:24:15;34.14;24.27
64034;SHT31;50280;49.864;8.638;2022-08-21T13:26:51;34.14;25.11
64034;SHT31;50280;49.864;8.638;2022-08-21T13:29:29;34.39;24.22
64034;SHT31;50280;49.864;8.638;2022-08-21T13:32:06;34.72;23.78
64034;SHT31;50280;49.864;8.638;2022-08-21T13:34:38;35.01;24.52
64034;SHT31;50280;49.864;8.638;2022-08-21T13:37:11;35.42;24.97
64034;SHT31;50280;49.864;8.638;2022-08-21T13:39:49;35.88;22.78
64034;SHT31;50280;49.864;8.638;2022-08-21T13:42:24;36.25;22.49
64034;SHT31;50280;49.864;8.638;2022-08-21T13:44:57;36.25;21.06
64034;SHT31;50280;49.864;8.638;2022-08-21T13:47:33;36.01;20.99
64034;SHT31;50280;49.864;8.638;2022-08-21T13:50:07;35.78;21.99
64034;SHT31;50280;49.864;8.638;2022-08-21T13:52:55;35.58;22.59
64034;SHT31;50280;49.864;8.638;2022-08-21T13:55:37;35.73;21.60
64034;SHT31;50280;49.864;8.638;2022-08-21T13:58:12;35.61;21.51
64034;SHT31;50280;49.864;8.638;2022-08-21T14:00:56;35.28;21.93
64034;SHT31;50280;49.864;8.638;2022-08-21T14:03:36;35.34;22.45
64034;SHT31;50280;49.864;8.638;2022-08-21T14:06:18;35.39;22.51
64034;SHT31;50280;49.864;8.638;2022-08-21T14:08:56;35.15;21.71
64034;SHT31;50280;49.864;8.638;2022-08-21T14:11:34;35.11;21.78
64034;SHT31;50280;49.864;8.638;2022-08-21T14:14:17;35.07;21.45
64034;SHT31;50280;49.864;8.638;2022-08-21T14:16:58;35.18;21.54
64034;SHT31;50280;49.864;8.638;2022-08-21T14:19:39;35.45;21.62
64034;SHT31;50280;49.864;8.638;2022-08-21T14:22:22;35.66;20.98
64034;SHT31;50280;49.864;8.638;2022-08-21T14:25:04;35.42;20.77
64034;SHT31;50280;49.864;8.638;2022-08-21T14:27:48;35.26;20.72
64034;SHT31;50280;49.864;8.638;2022-08-21T14:30:29;35.03;20.73
64034;SHT31;50280;49.864;8.638;2022-08-21T14:33:08;34.80;21.34
64034;SHT31;50280;49.864;8.638;2022-08-21T14:35:45;34.87;21.47
64034;SHT31;50280;49.864;8.638;2022-08-21T14:38:22;35.08;20.62
64034;SHT31;50280;49.864;8.638;2022-08-21T14:41:00;35.23;20.75
64034;SHT31;50280;49.864;8.638;2022-08-21T14:43:42;35.62;20.95
64034;SHT31;50280;49.864;8.638;2022-08-21T14:46:20;36.11;19.86
64034;SHT31;50280;49.864;8.638;2022-08-21T14:48:56;36.48;19.70
64034;SHT31;50280;49.864;8.638;2022-08-21T14:51:31;36.68;19.50
64034;SHT31;50280;49.864;8.638;2022-08-21T14:54:04;36.69;19.87
64034;SHT31;50280;49.864;8.638;2022-08-21T14:56:37;36.56;19.88
64034;SHT31;50280;49.864;8.638;2022-08-21T14:59:10;36.31;20.62
64034;SHT31;50280;49.864;8.638;2022-08-21T15:01:42;36.25;22.05
64034;SHT31;50280;49.864;8.638;2022-08-21T15:04:15;36.20;24.87
64034;SHT31;50280;49.864;8.638;2022-08-21T15:06:49;36.19;24.33
64034;SHT31;50280;49.864;8.638;2022-08-21T15:09:22;36.07;22.81
64034;SHT31;50280;49.864;8.638;2022-08-21T15:11:56;35.78;22.69
64034;SHT31;50280;49.864;8.638;2022-08-21T15:14:34;35.23;22.12
64034;SHT31;50280;49.864;8.638;2022-08-21T15:17:11;34.66;24.82
64034;SHT31;50280;49.864;8.638;2022-08-21T15:19:43;34.34;25.18
64034;SHT31;50280;49.864;8.638;2022-08-21T15:22:17;33.94;23.49
64034;SHT31;50280;49.864;8.638;2022-08-21T15:24:50;33.66;22.58
64034;SHT31;50280;49.864;8.638;2022-08-21T15:27:22;33.46;22.71
64034;SHT31;50280;49.864;8.638;2022-08-21T15:29:55;33.18;23.09
64034;SHT31;50280;49.864;8.638;2022-08-21T15:32:28;32.87;24.22
64034;SHT31;50280;49.864;8.638;2022-08-21T15:35:00;32.69;24.42
64034;SHT31;50280;49.864;8.638;2022-08-21T15:37:34;32.51;25.79
64034;SHT31;50280;49.864;8.638;2022-08-21T15:40:08;32.33;23.60
64034;SHT31;50280;49.864;8.638;2022-08-21T15:42:42;32.14;24.81
64034;SHT31;50280;49.864;8.638;2022-08-21T15:45:16;31.94;24.79
64034;SHT31;50280;49.864;8.638;2022-08-21T15:47:49;31.85;25.65
64034;SHT31;50280;49.864;8.638;2022-08-21T15:50:23;31.76;25.19
64034;SHT31;50280;49.864;8.638;2022-08-21T15:52:58;31.67;24.89
64034;SHT31;50280;49.864;8.638;2022-08-21T15:55:32;31.49;26.36
64034;SHT31;50280;49.864;8.638;2022-08-21T15:58:06;31.23;25.44
64034;SHT31;50280;49.864;8.638;2022-08-21T16:00:45;31.05;26.66
64034;SHT31;50280;49.864;8.638;2022-08-21T16:03:18;30.88;27.22
64034;SHT31;50280;49.864;8.638;2022-08-21T16:05:51;30.88;29.72
64034;SHT31;50280;49.864;8.638;2022-08-21T16:08:25;31.01;26.33
64034;SHT31;50280;49.864;8.638;2022-08-21T16:10:57;31.14;26.32
64034;SHT31;50280;49.864;8.638;2022-08-21T16:13:36;31.23;26.89
64034;SHT31;50280;49.864;8.638;2022-08-21T16:16:16;31.30;26.38
64034;SHT31;50280;49.864;8.638;2022-08-21T16:18:52;31.39;28.55
64034;SHT31;50280;49.864;8.638;2022-08-21T16:21:25;31.47;27.39
64034;SHT31;50280;49.864;8.638;2022-08-21T16:24:00;31.43;26.62
64034;SHT31;50280;49.864;8.638;2022-08-21T16:26:33;31.36;26.16
64034;SHT31;50280;49.864;8.638;2022-08-21T16:29:06;31.22;26.28
64034;SHT31;50280;49.864;8.638;2022-08-21T16:31:39;31.09;26.38
64034;SHT31;50280;49.864;8.638;2022-08-21T16:34:15;31.01;26.13
64034;SHT31;50280;49.864;8.638;2022-08-21T16:36:50;30.96;26.22
64034;SHT31;50280;49.864;8.638;2022-08-21T16:39:24;30.96;25.88
64034;SHT31;50280;49.864;8.638;2022-08-21T16:41:56;30.99;26.39
64034;SHT31;50280;49.864;8.638;2022-08-21T16:44:29;31.08;26.14
64034;SHT31;50280;49.864;8.638;2022-08-21T16:47:02;31.19;26.39
64034;SHT31;50280;49.864;8.638;2022-08-21T16:49:35;31.26;26.27
64034;SHT31;50280;49.864;8.638;2022-08-21T16:52:08;31.30;27.58
64034;SHT31;50280;49.864;8.638;2022-08-21T16:54:42;31.33;28.41
64034;SHT31;50280;49.864;8.638;2022-08-21T16:57:14;31.29;25.74
64034;SHT31;50280;49.864;8.638;2022-08-21T16:59:47;31.05;25.86
64034;SHT31;50280;49.864;8.638;2022-08-21T17:02:27;30.71;26.83
64034;SHT31;50280;49.864;8.638;2022-08-21T17:05:04;30.37;27.98
64034;SHT31;50280;49.864;8.638;2022-08-21T17:07:38;30.13;27.83
64034;SHT31;50280;49.864;8.638;2022-08-21T17:10:15;29.94;28.12
64034;SHT31;50280;49.864;8.638;2022-08-21T17:12:52;29.74;28.03
64034;SHT31;50280;49.864;8.638;2022-08-21T17:15:34;29.58;28.74
64034;SHT31;50280;49.864;8.638;2022-08-21T17:18:15;29.49;28.63
64034;SHT31;50280;49.864;8.638;2022-08-21T17:20:53;29.36;29.04
64034;SHT31;50280;49.864;8.638;2022-08-21T17:23:25;29.25;29.40
64034;SHT31;50280;49.864;8.638;2022-08-21T17:26:02;29.08;28.88
64034;SHT31;50280;49.864;8.638;2022-08-21T17:28:36;28.88;29.09
64034;SHT31;50280;49.864;8.638;2022-08-21T17:31:10;28.77;30.37
64034;SHT31;50280;49.864;8.638;2022-08-21T17:33:48;28.63;30.64
64034;SHT31;50280;49.864;8.638;2022-08-21T17:36:26;28.44;29.77
64034;SHT31;50280;49.864;8.638;2022-08-21T17:39:01;28.32;29.67
64034;SHT31;50280;49.864;8.638;2022-08-21T17:41:38;28.19;29.93
64034;SHT31;50280;49.864;8.638;2022-08-21T17:44:14;28.10;30.55
64034;SHT31;50280;49.864;8.638;2022-08-21T17:46:51;27.99;31.59
64034;SHT31;50280;49.864;8.638;2022-08-21T17:49:23;27.89;31.28
64034;SHT31;50280;49.864;8.638;2022-08-21T17:51:56;27.81;32.01
64034;SHT31;50280;49.864;8.638;2022-08-21T17:54:29;27.70;31.73
64034;SHT31;50280;49.864;8.638;2022-08-21T17:57:04;27.60;32.30
64034;SHT31;50280;49.864;8.638;2022-08-21T17:59:36;27.51;32.75
64034;SHT31;50280;49.864;8.638;2022-08-21T18:02:09;27.43;33.46
64034;SHT31;50280;49.864;8.638;2022-08-21T18:04:43;27.29;33.61
64034;SHT31;50280;49.864;8.638;2022-08-21T18:07:16;27.22;33.78
64034;SHT31;50280;49.864;8.638;2022-08-21T18:09:50;27.12;33.26
64034;SHT31;50280;49.864;8.638;2022-08-21T18:12:24;27.02;33.62
64034;SHT31;50280;49.864;8.638;2022-08-21T18:14:56;26.92;34.50
64034;SHT31;50280;49.864;8.638;2022-08-21T18:17:31;26.84;34.18
64034;SHT31;50280;49.864;8.638;2022-08-21T18:20:04;26.77;34.78
64034;SHT31;50280;49.864;8.638;2022-08-21T18:22:38;26.65;34.77
64034;SHT31;50280;49.864;8.638;2022-08-21T18:25:11;26.55;35.22
64034;SHT31;50280;49.864;8.638;2022-08-21T18:27:46;26.47;35.47
64034;SHT31;50280;49.864;8.638;2022-08-21T18:30:22;26.33;35.77
64034;SHT31;50280;49.864;8.638;2022-08-21T18:32:55;26.23;35.95
64034;SHT31;50280;49.864;8.638;2022-08-21T18:35:27;26.12;36.50
64034;SHT31;50280;49.864;8.638;2022-08-21T18:38:00;26.05;36.76
64034;SHT31;50280;49.864;8.638;2022-08-21T18:40:33;25.93;37.23
64034;SHT31;50280;49.864;8.638;2022-08-21T18:43:12;25.84;37.52
64034;SHT31;50280;49.864;8.638;2022-08-21T18:45:45;25.74;37.93
64034;SHT31;50280;49.864;8.638;2022-08-21T18:48:17;25.65;38.20
64034;SHT31;50280;49.864;8.638;2022-08-21T18:50:50;25.55;38.45
64034;SHT31;50280;49.864;8.638;2022-08-21T18:53:22;25.44;38.70
64034;SHT31;50280;49.864;8.638;2022-08-21T18:55:55;25.33;38.79
64034;SHT31;50280;49.864;8.638;2022-08-21T18:58:29;25.23;39.07
64034;SHT31;50280;49.864;8.638;2022-08-21T19:01:02;25.10;39.25
64034;SHT31;50280;49.864;8.638;2022-08-21T19:03:35;25.03;40.32
64034;SHT31;50280;49.864;8.638;2022-08-21T19:06:07;24.95;40.33
64034;SHT31;50280;49.864;8.638;2022-08-21T19:08:40;24.88;40.71
64034;SHT31;50280;49.864;8.638;2022-08-21T19:11:12;24.85;40.99
64034;SHT31;50280;49.864;8.638;2022-08-21T19:13:48;24.78;41.13
64034;SHT31;50280;49.864;8.638;2022-08-21T19:16:25;24.69;41.28
64034;SHT31;50280;49.864;8.638;2022-08-21T19:18:59;24.63;41.35
64034;SHT31;50280;49.864;8.638;2022-08-21T19:21:33;24.53;41.81
64034;SHT31;50280;49.864;8.638;2022-08-21T19:24:06;24.46;41.89
64034;SHT31;50280;49.864;8.638;2022-08-21T19:26:38;24.39;42.45
64034;SHT31;50280;49.864;8.638;2022-08-21T19:29:15;24.33;42.60
64034;SHT31;50280;49.864;8.638;2022-08-21T19:31:50;24.26;42.73
64034;SHT31;50280;49.864;8.638;2022-08-21T19:34:26;24.19;42.70
64034;SHT31;50280;49.864;8.638;2022-08-21T19:37:00;24.12;42.52
64034;SHT31;50280;49.864;8.638;2022-08-21T19:39:34;24.06;42.95
64034;SHT31;50280;49.864;8.638;2022-08-21T19:42:08;24.02;43.42
64034;SHT31;50280;49.864;8.638;2022-08-21T19:44:43;23.92;43.57
64034;SHT31;50280;49.864;8.638;2022-08-21T19:47:17;23.85;43.80
64034;SHT31;50280;49.864;8.638;2022-08-21T19:49:53;23.79;44.16
64034;SHT31;50280;49.864;8.638;2022-08-21T19:52:31;23.72;44.37
64034;SHT31;50280;49.864;8.638;2022-08-21T19:55:04;23.65;44.28
64034;SHT31;50280;49.864;8.638;2022-08-21T19:57:38;23.58;44.45
64034;SHT31;50280;49.864;8.638;2022-08-21T20:00:13;23.48;44.68
64034;SHT31;50280;49.864;8.638;2022-08-21T20:02:46;23.40;44.68
64034;SHT31;50280;49.864;8.638;2022-08-21T20:05:18;23.37;46.46
64034;SHT31;50280;49.864;8.638;2022-08-21T20:07:51;23.33;45.76
64034;SHT31;50280;49.864;8.638;2022-08-21T20:10:23;23.31;45.80
64034;SHT31;50280;49.864;8.638;2022-08-21T20:12:56;23.30;45.88
64034;SHT31;50280;49.864;8.638;2022-08-21T20:15:30;23.33;45.38
64034;SHT31;50280;49.864;8.638;2022-08-21T20:18:03;23.28;45.66
64034;SHT31;50280;49.864;8.638;2022-08-21T20:20:35;23.26;45.50
64034;SHT31;50280;49.864;8.638;2022-08-21T20:23:08;23.23;45.67
64034;SHT31;50280;49.864;8.638;2022-08-21T20:25:40;23.19;46.14
64034;SHT31;50280;49.864;8.638;2022-08-21T20:28:13;23.16;45.22
64034;SHT31;50280;49.864;8.638;2022-08-21T20:30:47;23.14;45.01
64034;SHT31;50280;49.864;8.638;2022-08-21T20:33:20;23.10;44.99
64034;SHT31;50280;49.864;8.638;2022-08-21T20:35:52;23.05;45.16
64034;SHT31;50280;49.864;8.638;2022-08-21T20:38:25;22.98;45.17
64034;SHT31;50280;49.864;8.638;2022-08-21T20:40:58;22.92;45.61
64034;SHT31;50280;49.864;8.638;2022-08-21T20:43:32;22.86;45.71
64034;SHT31;50280;49.864;8.638;2022-08-21T20:46:09;22.82;45.83
64034;SHT31;50280;49.864;8.638;2022-08-21T20:48:42;22.78;46.06
64034;SHT31;50280;49.864;8.638;2022-08-21T20:51:19;22.72;46.18
64034;SHT31;50280;49.864;8.638;2022-08-21T20:54:03;22.65;45.97
64034;SHT31;50280;49.864;8.638;2022-08-21T20:56:53;22.60;45.89
64034;SHT31;50280;49.864;8.638;2022-08-21T20:59:41;22.54;46.03
64034;SHT31;50280;49.864;8.638;2022-08-21T21:02:33;22.47;45.85
64034;SHT31;50280;49.864;8.638;2022-08-21T21:05:20;22.40;45.79
64034;SHT31;50280;49.864;8.638;2022-08-21T21:08:00;22.36;46.09
64034;SHT31;50280;49.864;8.638;2022-08-21T21:10:41;22.29;46.04
64034;SHT31;50280;49.864;8.638;2022-08-21T21:13:23;22.23;46.12
64034;SHT31;50280;49.864;8.638;2022-08-21T21:16:05;22.21;46.08
64034;SHT31;50280;49.864;8.638;2022-08-21T21:18:49;22.17;46.41
64034;SHT31;50280;49.864;8.638;2022-08-21T21:21:32;22.12;46.30
64034;SHT31;50280;49.864;8.638;2022-08-21T21:24:18;22.10;46.75
64034;SHT31;50280;49.864;8.638;2022-08-21T21:27:01;22.05;46.89
64034;SHT31;50280;49.864;8.638;2022-08-21T21:29:46;21.98;47.02
64034;SHT31;50280;49.864;8.638;2022-08-21T21:32:25;21.98;46.79
64034;SHT31;50280;49.864;8.638;2022-08-21T21:35:03;21.90;46.62
64034;SHT31;50280;49.864;8.638;2022-08-21T21:37:42;21.90;46.15
64034;SHT31;50280;49.864;8.638;2022-08-21T21:40:33;21.85;46.28
64034;SHT31;50280;49.864;8.638;2022-08-21T21:43:30;21.85;46.35
64034;SHT31;50280;49.864;8.638;2022-08-21T21:46:25;21.83;46.25
64034;SHT31;50280;49.864;8.638;2022-08-21T21:49:28;21.83;46.48
64034;SHT31;50280;49.864;8.638;2022-08-21T21:52:28;21.81;46.30
64034;SHT31;50280;49.864;8.638;2022-08-21T21:55:32;21.79;46.25
64034;SHT31;50280;49.864;8.638;2022-08-21T21:58:37;21.79;45.92
64034;SHT31;50280;49.864;8.638;2022-08-21T22:01:37;21.79;45.78
64034;SHT31;50280;49.864;8.638;2022-08-21T22:04:21;21.79;45.84
64034;SHT31;50280;49.864;8.638;2022-08-21T22:07:08;21.79;45.81
64034;SHT31;50280;49.864;8.638;2022-08-21T22:09:52;21.78;45.79
64034;SHT31;50280;49.864;8.638;2022-08-21T22:12:36;21.77;45.72
64034;SHT31;50280;49.864;8.638;2022-08-21T22:15:21;21.77;45.72
64034;SHT31;50280;49.864;8.638;2022-08-21T22:17:59;21.77;45.37
64034;SHT31;50280;49.864;8.638;2022-08-21T22:20:41;21.71;45.36
64034;SHT31;50280;49.864;8.638;2022-08-21T22:23:26;21.71;45.16
64034;SHT31;50280;49.864;8.638;2022-08-21T22:26:09;21.71;44.98
64034;SHT31;50280;49.864;8.638;2022-08-21T22:28:47;21.71;44.84
64034;SHT31;50280;49.864;8.638;2022-08-21T22:31:25;21.65;44.86
64034;SHT31;50280;49.864;8.638;2022-08-21T22:34:03;21.62;44.94
64034;SHT31;50280;49.864;8.638;2022-08-21T22:36:41;21.62;45.15
64034;SHT31;50280;49.864;8.638;2022-08-21T22:39:25;21.59;45.34
64034;SHT31;50280;49.864;8.638;2022-08-21T22:42:07;21.58;45.42
64034;SHT31;50280;49.864;8.638;2022-08-21T22:44:50;21.58;45.48
64034;SHT31;50280;49.864;8.638;2022-08-21T22:47:31;21.55;45.57
64034;SHT31;50280;49.864;8.638;2022-08-21T22:50:16;21.55;45.72
64034;SHT31;50280;49.864;8.638;2022-08-21T22:53:01;21.51;46.01
64034;SHT31;50280;49.864;8.638;2022-08-21T22:55:41;21.50;45.82
64034;SHT31;50280;49.864;8.638;2022-08-21T22:58:27;21.48;46.20
64034;SHT31;50280;49.864;8.638;2022-08-21T23:01:11;21.44;46.14
64034;SHT31;50280;49.864;8.638;2022-08-21T23:04:18;21.41;46.18
64034;SHT31;50280;49.864;8.638;2022-08-21T23:06:55;21.40;46.54
64034;SHT31;50280;49.864;8.638;2022-08-21T23:09:32;21.35;46.65
64034;SHT31;50280;49.864;8.638;2022-08-21T23:12:23;21.34;46.95
64034;SHT31;50280;49.864;8.638;2022-08-21T23:15:01;21.30;47.07
64034;SHT31;50280;49.864;8.638;2022-08-21T23:17:45;21.26;47.42
64034;SHT31;50280;49.864;8.638;2022-08-21T23:20:29;21.23;47.76
64034;SHT31;50280;49.864;8.638;2022-08-21T23:23:20;21.14;48.10
64034;SHT31;50280;49.864;8.638;2022-08-21T23:26:13;21.07;48.38
64034;SHT31;50280;49.864;8.638;2022-08-21T23:29:12;20.99;48.72
64034;SHT31;50280;49.864;8.638;2022-08-21T23:32:02;20.92;48.89
64034;SHT31;50280;49.864;8.638;2022-08-21T23:35:02;20.83;49.29
64034;SHT31;50280;49.864;8.638;2022-08-21T23:37:51;20.73;49.54
64034;SHT31;50280;49.864;8.638;2022-08-21T23:40:39;20.67;49.67
64034;SHT31;50280;49.864;8.638;2022-08-21T23:43:24;20.58;49.90
64034;SHT31;50280;49.864;8.638;2022-08-21T23:46:22;20.54;50.26
64034;SHT31;50280;49.864;8.638;2022-08-21T23:49:26;20.47;50.42
64034;SHT31;50280;49.864;8.638;2022-08-21T23:52:26;20.41;50.41
64034;SHT31;50280;49.864;8.638;2022-08-21T23:55:28;20.34;50.49
64034;SHT31;50280;49.864;8.638;2022-08-21T23:58:24;20.31;50.57
